Time;durP1;ratioP1;P1;durP2;ratioP2;P2;SDS_P1;SDS_P2;PMS_P1;PMS_P2;Temp;Humidity;BMP_temperature;BMP_pressure;BME280_temperature;BME280_humidity;BME280_pressure;Samples;Min_cycle;Max_cycle;Signal;HPM_P1;HPM_P2
2023/04/30 00:00:19;;;;;;;5.65;4.13;;;;;;;;;;5055139;28;20025;-58
2023/04/30 00:02:45;;;;;;;5.25;3.92;;;;;;;;;;5054259;28;20031;-57
2023/04/30 00:05:11;;;;;;;5.10;3.50;;;;;;;;;;5054192;28;20059;-58
2023/04/30 00:07:41;;;;;;;4.07;3.65;;;;;;;;;;5054397;28;20102;-56
2023/04/30 00:10:07;;;;;;;5.15;3.65;;;;;;;;;;5054929;28;20025;-58
2023/04/30 00:12:33;;;;;;;3.45;3.03;;;;;;;;;;5053525;28;20056;-58
2023/04/30 00:15:00;;;;;;;4.32;3.65;;;;;;;;;;5053902;28;20108;-58
2023/04/30 00:17:26;;;;;;;4.70;3.92;;;;;;;;;;5054835;28;20406;-58
2023/04/30 00:19:52;;;;;;;5.63;4.10;;;;;;;;;;5053984;28;20033;-58
2023/04/30 00:22:18;;;;;;;6.32;4.80;;;;;;;;;;5053981;28;20019;-58
2023/04/30 00:24:44;;;;;;;4.68;3.83;;;;;;;;;;5053940;28;20104;-58
2023/04/30 00:27:10;;;;;;;5.57;3.95;;;;;;;;;;5054607;28;20060;-58
2023/04/30 00:29:36;;;;;;;4.40;3.80;;;;;;;;;;5053912;28;20059;-58
2023/04/30 00:32:02;;;;;;;5.57;4.55;;;;;;;;;;5053793;28;20021;-57
2023/04/30 00:34:28;;;;;;;4.38;3.72;;;;;;;;;;5053815;28;20410;-58
2023/04/30 00:36:54;;;;;;;5.55;4.10;;;;;;;;;;5054152;28;20119;-58
2023/04/30 00:39:20;;;;;;;5.70;4.45;;;;;;;;;;5053740;28;20344;-58
2023/04/30 00:41:46;;;;;;;6.10;4.50;;;;;;;;;;5053813;28;20028;-58
2023/04/30 00:44:12;;;;;;;4.65;3.70;;;;;;;;;;5053905;28;20398;-58
2023/04/30 00:46:38;;;;;;;4.20;3.60;;;;;;;;;;5053788;28;20376;-58
2023/04/30 00:49:04;;;;;;;5.15;3.97;;;;;;;;;;5054424;28;20021;-57
2023/04/30 00:51:31;;;;;;;4.47;4.05;;;;;;;;;;5053638;28;20025;-58
2023/04/30 00:54:00;;;;;;;4.57;3.90;;;;;;;;;;5053666;28;20461;-58
2023/04/30 00:56:26;;;;;;;4.55;3.80;;;;;;;;;;5053720;28;20029;-58
2023/04/30 00:58:56;;;;;;;4.63;4.00;;;;;;;;;;5053798;28;20029;-58
2023/04/30 01:01:23;;;;;;;5.50;4.50;;;;;;;;;;5053494;28;20025;-58
2023/04/30 01:03:49;;;;;;;5.90;4.38;;;;;;;;;;5053853;28;20674;-58
2023/04/30 01:06:15;;;;;;;4.88;3.80;;;;;;;;;;5053825;28;20025;-58
2023/04/30 01:08:40;;;;;;;5.03;3.60;;;;;;;;;;5053368;28;20231;-58
2023/04/30 01:11:12;;;;;;;6.70;4.32;;;;;;;;;;5053477;28;20076;-58
2023/04/30 01:13:40;;;;;;;4.60;3.85;;;;;;;;;;5053343;28;20094;-58
2023/04/30 01:16:26;;;;;;;5.20;4.15;;;;;;;;;;5053506;28;20477;-58
2023/04/30 01:18:56;;;;;;;4.30;3.85;;;;;;;;;;5053477;28;20351;-58
2023/04/30 01:21:23;;;;;;;6.95;4.60;;;;;;;;;;5053406;28;20100;-58
2023/04/30 01:24:07;;;;;;;6.55;5.22;;;;;;;;;;5053262;28;20032;-58
2023/04/30 01:26:45;;;;;;;5.43;4.88;;;;;;;;;;5056960;28;20029;-58
2023/04/30 01:29:12;;;;;;;5.70;4.75;;;;;;;;;;5056863;28;20487;-58
2023/04/30 01:31:38;;;;;;;4.85;4.35;;;;;;;;;;5057069;28;20082;-58
2023/04/30 01:34:04;;;;;;;5.60;5.03;;;;;;;;;;5057036;28;20111;-58
2023/04/30 01:36:42;;;;;;;4.68;3.70;;;;;;;;;;5057641;28;20098;-58
2023/04/30 01:39:08;;;;;;;5.78;4.80;;;;;;;;;;5057313;28;20032;-57
2023/04/30 01:41:44;;;;;;;6.75;4.70;;;;;;;;;;5057132;28;20032;-58
2023/04/30 01:44:26;;;;;;;9.68;5.20;;;;;;;;;;5056714;28;20021;-59
2023/04/30 01:46:58;;;;;;;5.60;4.55;;;;;;;;;;5057301;28;20067;-59
2023/04/30 01:49:37;;;;;;;6.18;5.00;;;;;;;;;;5057286;28;20120;-58
2023/04/30 01:52:09;;;;;;;6.20;4.63;;;;;;;;;;5056792;28;20021;-57
2023/04/30 01:54:41;;;;;;;6.43;5.13;;;;;;;;;;5056994;28;20021;-58
2023/04/30 01:57:07;;;;;;;5.90;5.10;;;;;;;;;;5057013;28;20523;-58
2023/04/30 01:59:35;;;;;;;6.20;4.80;;;;;;;;;;5056622;28;20110;-58
2023/04/30 02:02:02;;;;;;;8.23;5.50;;;;;;;;;;5057330;28;20039;-58
2023/04/30 02:04:28;;;;;;;6.30;5.35;;;;;;;;;;5057262;28;20033;-59
2023/04/30 02:06:54;;;;;;;5.47;4.60;;;;;;;;;;5056531;28;20091;-58
2023/04/30 02:09:22;;;;;;;7.93;5.03;;;;;;;;;;5056904;28;20065;-59
2023/04/30 02:11:48;;;;;;;6.18;5.18;;;;;;;;;;5056370;28;20029;-58
2023/04/30 02:14:14;;;;;;;6.50;5.35;;;;;;;;;;5056171;28;20053;-59
2023/04/30 02:16:40;;;;;;;7.82;5.97;;;;;;;;;;5056614;28;20029;-57
2023/04/30 02:19:06;;;;;;;7.82;6.10;;;;;;;;;;5056308;28;20021;-58
2023/04/30 02:21:32;;;;;;;7.55;6.32;;;;;;;;;;5056290;28;20047;-59
2023/04/30 02:23:58;;;;;;;8.85;7.05;;;;;;;;;;5056659;28;20024;-59
2023/04/30 02:26:25;;;;;;;6.78;6.10;;;;;;;;;;5056460;28;20351;-58
2023/04/30 02:28:51;;;;;;;7.05;6.35;;;;;;;;;;5055952;28;20049;-58
2023/04/30 02:31:17;;;;;;;6.80;6.07;;;;;;;;;;5056059;28;20116;-58
2023/04/30 02:33:43;;;;;;;6.35;5.63;;;;;;;;;;5055741;28;20025;-59
2023/04/30 02:36:09;;;;;;;8.77;6.78;;;;;;;;;;5054911;28;20025;-58
2023/04/30 02:38:35;;;;;;;8.63;6.38;;;;;;;;;;5056217;28;20029;-58
2023/04/30 02:41:02;;;;;;;6.72;5.72;;;;;;;;;;5055820;28;20082;-58
2023/04/30 02:43:28;;;;;;;7.90;6.10;;;;;;;;;;5055989;28;20513;-58
2023/04/30 02:45:54;;;;;;;7.57;6.72;;;;;;;;;;5056096;28;20029;-58
2023/04/30 02:48:20;;;;;;;8.00;6.85;;;;;;;;;;5055535;28;20037;-59
2023/04/30 02:50:46;;;;;;;9.63;7.40;;;;;;;;;;5055615;28;20116;-59
2023/04/30 02:53:12;;;;;;;7.70;6.50;;;;;;;;;;5055655;28;20072;-59
2023/04/30 02:55:38;;;;;;;9.10;7.88;;;;;;;;;;5056207;28;20022;-59
2023/04/30 02:58:04;;;;;;;8.23;6.53;;;;;;;;;;5055502;28;20122;-58
2023/04/30 03:00:29;;;;;;;9.38;7.00;;;;;;;;;;5055469;28;20465;-58
2023/04/30 03:02:55;;;;;;;7.38;6.45;;;;;;;;;;5055751;28;20025;-58
2023/04/30 03:05:22;;;;;;;7.43;6.45;;;;;;;;;;5056162;28;20078;-58
2023/04/30 03:07:48;;;;;;;7.45;6.65;;;;;;;;;;5055251;28;20032;-59
2023/04/30 03:10:14;;;;;;;8.52;7.25;;;;;;;;;;5055253;28;20031;-59
2023/04/30 03:12:40;;;;;;;7.82;6.70;;;;;;;;;;5055232;28;20363;-58
2023/04/30 03:15:07;;;;;;;7.30;6.53;;;;;;;;;;5055189;28;20055;-59
2023/04/30 03:17:33;;;;;;;6.18;5.57;;;;;;;;;;5055481;28;20029;-58
2023/04/30 03:19:59;;;;;;;7.05;6.35;;;;;;;;;;5055132;28;20021;-59
2023/04/30 03:22:25;;;;;;;8.02;6.50;;;;;;;;;;5055141;28;20455;-59
2023/04/30 03:24:51;;;;;;;8.85;6.72;;;;;;;;;;5055000;28;20037;-59
2023/04/30 03:27:17;;;;;;;7.60;6.75;;;;;;;;;;5055267;28;20069;-58
2023/04/30 03:29:43;;;;;;;8.68;6.90;;;;;;;;;;5055400;28;20082;-58
2023/04/30 03:32:09;;;;;;;6.75;6.03;;;;;;;;;;5054945;28;20438;-58
2023/04/30 03:34:35;;;;;;;8.13;7.32;;;;;;;;;;5055249;28;20029;-59
2023/04/30 03:37:01;;;;;;;6.80;5.18;;;;;;;;;;5055153;28;20039;-58
2023/04/30 03:39:27;;;;;;;9.98;6.50;;;;;;;;;;5054459;28;20021;-58
2023/04/30 03:41:53;;;;;;;7.75;6.32;;;;;;;;;;5054984;28;20032;-57
2023/04/30 03:44:19;;;;;;;6.85;6.15;;;;;;;;;;5054776;28;20525;-58
2023/04/30 03:46:45;;;;;;;7.43;6.32;;;;;;;;;;5054843;28;20124;-58
2023/04/30 03:49:11;;;;;;;8.50;7.15;;;;;;;;;;5054419;28;20120;-58
2023/04/30 03:51:40;;;;;;;7.65;5.88;;;;;;;;;;5055384;28;20025;-58
2023/04/30 03:54:07;;;;;;;6.95;6.30;;;;;;;;;;5054555;28;20025;-59
2023/04/30 03:56:33;;;;;;;7.43;6.40;;;;;;;;;;5054638;28;20452;-58
2023/04/30 03:58:59;;;;;;;10.45;6.65;;;;;;;;;;5054461;28;20017;-59
2023/04/30 04:01:25;;;;;;;7.15;6.45;;;;;;;;;;5054402;28;20065;-58
2023/04/30 04:03:51;;;;;;;6.82;5.82;;;;;;;;;;5054340;28;20127;-59
2023/04/30 04:06:17;;;;;;;9.45;6.03;;;;;;;;;;5055252;28;20463;-58
2023/04/30 04:08:43;;;;;;;8.77;6.85;;;;;;;;;;5054276;28;20456;-58
2023/04/30 04:11:09;;;;;;;8.10;6.68;;;;;;;;;;5054295;28;20021;-58
2023/04/30 04:13:35;;;;;;;8.43;6.05;;;;;;;;;;5054521;28;20465;-58
2023/04/30 04:16:01;;;;;;;6.50;5.78;;;;;;;;;;5054581;28;20033;-59
2023/04/30 04:18:27;;;;;;;6.15;5.55;;;;;;;;;;5054243;28;20094;-59
2023/04/30 04:20:54;;;;;;;5.85;5.25;;;;;;;;;;5054392;28;20025;-59
2023/04/30 04:23:20;;;;;;;7.28;5.88;;;;;;;;;;5054065;28;20383;-58
2023/04/30 04:25:48;;;;;;;8.40;6.88;;;;;;;;;;5054185;28;20021;-59
2023/04/30 04:28:15;;;;;;;8.13;7.05;;;;;;;;;;5053939;28;20044;-58
2023/04/30 04:30:41;;;;;;;7.70;6.90;;;;;;;;;;5054151;28;20056;-58
2023/04/30 04:33:07;;;;;;;8.73;6.95;;;;;;;;;;5053940;28;20021;-58
2023/04/30 04:35:33;;;;;;;8.27;6.50;;;;;;;;;;5053891;28;20037;-58
2023/04/30 04:38:00;;;;;;;7.30;6.57;;;;;;;;;;5053929;28;20036;-58
2023/04/30 04:40:26;;;;;;;9.93;7.60;;;;;;;;;;5053782;28;20112;-59
2023/04/30 04:42:52;;;;;;;8.80;7.47;;;;;;;;;;5054331;28;20403;-58
2023/04/30 04:45:19;;;;;;;9.13;6.80;;;;;;;;;;5053776;28;20078;-58
2023/04/30 04:47:45;;;;;;;7.80;6.38;;;;;;;;;;5053546;28;20037;-58
2023/04/30 04:50:11;;;;;;;7.63;6.82;;;;;;;;;;5053672;28;20040;-58
2023/04/30 04:52:38;;;;;;;9.35;6.93;;;;;;;;;;5054212;28;20017;-58
2023/04/30 04:55:04;;;;;;;7.80;6.63;;;;;;;;;;5053974;28;20470;-58
2023/04/30 04:57:30;;;;;;;7.68;6.90;;;;;;;;;;5053717;28;20029;-58
2023/04/30 04:59:56;;;;;;;9.13;7.50;;;;;;;;;;5055407;28;20021;-58
2023/04/30 05:02:22;;;;;;;8.02;6.78;;;;;;;;;;5057719;28;20029;-58
2023/04/30 05:04:49;;;;;;;7.97;7.18;;;;;;;;;;5057764;28;20040;-58
2023/04/30 05:07:16;;;;;;;8.20;7.13;;;;;;;;;;5058145;28;20056;-59
2023/04/30 05:09:42;;;;;;;8.65;6.93;;;;;;;;;;5057528;28;20463;-59
2023/04/30 05:12:08;;;;;;;9.70;7.55;;;;;;;;;;5057912;28;20474;-59
2023/04/30 05:14:36;;;;;;;7.28;6.55;;;;;;;;;;5058019;28;20053;-59
2023/04/30 05:17:02;;;;;;;7.13;6.30;;;;;;;;;;5057454;28;20068;-58
2023/04/30 05:19:27;;;;;;;10.70;7.45;;;;;;;;;;5057208;28;20032;-59
2023/04/30 05:21:53;;;;;;;7.65;6.93;;;;;;;;;;5057426;28;20028;-58
2023/04/30 05:24:19;;;;;;;7.15;6.45;;;;;;;;;;5057690;28;20075;-58
2023/04/30 05:26:45;;;;;;;7.28;6.50;;;;;;;;;;5057274;28;20082;-57
2023/04/30 05:29:12;;;;;;;7.90;7.00;;;;;;;;;;5057257;28;20021;-59
2023/04/30 05:31:38;;;;;;;7.13;6.07;;;;;;;;;;5057190;28;20021;-58
2023/04/30 05:34:04;;;;;;;7.32;6.63;;;;;;;;;;5056922;28;20471;-58
2023/04/30 05:36:30;;;;;;;7.55;6.60;;;;;;;;;;5057513;28;20110;-58
2023/04/30 05:38:56;;;;;;;8.05;7.20;;;;;;;;;;5057884;28;20075;-58
2023/04/30 05:41:22;;;;;;;9.18;7.63;;;;;;;;;;5057784;28;20516;-58
2023/04/30 05:43:48;;;;;;;7.82;7.03;;;;;;;;;;5056728;28;20497;-58
2023/04/30 05:46:14;;;;;;;7.05;6.18;;;;;;;;;;5057510;28;20055;-58
2023/04/30 05:48:40;;;;;;;8.45;7.72;;;;;;;;;;5056848;28;20037;-58
2023/04/30 05:51:06;;;;;;;6.97;6.28;;;;;;;;;;5057337;28;20121;-58
2023/04/30 05:53:32;;;;;;;7.82;6.47;;;;;;;;;;5056873;28;20455;-59
2023/04/30 05:55:58;;;;;;;6.35;5.60;;;;;;;;;;5057313;28;20514;-59
2023/04/30 05:58:24;;;;;;;8.68;6.03;;;;;;;;;;5057357;28;20029;-59
2023/04/30 06:00:51;;;;;;;7.50;5.88;;;;;;;;;;5056417;28;20083;-58
2023/04/30 06:03:18;;;;;;;7.10;5.82;;;;;;;;;;5056603;28;20033;-59
2023/04/30 06:05:44;;;;;;;7.10;6.07;;;;;;;;;;5056768;28;20458;-59
2023/04/30 06:08:10;;;;;;;6.43;5.65;;;;;;;;;;5056359;28;20374;-59
2023/04/30 06:10:37;;;;;;;6.38;5.78;;;;;;;;;;5057171;28;20025;-59
2023/04/30 06:13:03;;;;;;;9.00;6.82;;;;;;;;;;5056877;28;20052;-58
2023/04/30 06:15:28;;;;;;;6.95;6.25;;;;;;;;;;5055999;28;20387;-58
2023/04/30 06:17:55;;;;;;;6.63;5.93;;;;;;;;;;5056352;28;20036;-58
2023/04/30 06:20:21;;;;;;;8.57;6.65;;;;;;;;;;5056292;28;20134;-58
2023/04/30 06:22:47;;;;;;;7.63;6.10;;;;;;;;;;5056259;28;20155;-58
2023/04/30 06:25:13;;;;;;;6.88;6.18;;;;;;;;;;5056440;28;20063;-59
2023/04/30 06:27:39;;;;;;;7.15;6.47;;;;;;;;;;5056212;28;20029;-58
2023/04/30 06:30:05;;;;;;;6.72;4.90;;;;;;;;;;5056167;28;20052;-59
2023/04/30 06:32:31;;;;;;;10.23;6.13;;;;;;;;;;5056028;28;20029;-58
2023/04/30 06:34:57;;;;;;;7.47;6.72;;;;;;;;;;5055963;28;20032;-58
2023/04/30 06:37:23;;;;;;;7.32;6.47;;;;;;;;;;5056333;28;20064;-59
2023/04/30 06:39:50;;;;;;;6.15;5.55;;;;;;;;;;5056238;28;20055;-58
2023/04/30 06:42:16;;;;;;;6.10;5.50;;;;;;;;;;5055896;28;20032;-58
2023/04/30 06:44:42;;;;;;;6.88;6.10;;;;;;;;;;5056184;28;20051;-58
2023/04/30 06:47:08;;;;;;;8.40;7.38;;;;;;;;;;5056128;28;20037;-59
2023/04/30 06:49:34;;;;;;;6.30;5.60;;;;;;;;;;5056116;28;20370;-58
2023/04/30 06:52:00;;;;;;;9.55;6.35;;;;;;;;;;5055744;28;20108;-58
2023/04/30 06:54:26;;;;;;;6.63;5.82;;;;;;;;;;5056473;28;20025;-58
2023/04/30 06:56:52;;;;;;;6.80;6.15;;;;;;;;;;5055642;28;20057;-59
2023/04/30 06:59:18;;;;;;;6.95;5.22;;;;;;;;;;5055564;28;20017;-58
2023/04/30 07:01:44;;;;;;;6.05;5.45;;;;;;;;;;5055544;28;20465;-58
2023/04/30 07:04:11;;;;;;;6.07;5.57;;;;;;;;;;5055459;28;20395;-56
2023/04/30 07:06:37;;;;;;;6.65;5.25;;;;;;;;;;5056318;28;20021;-56
2023/04/30 07:09:03;;;;;;;6.35;5.57;;;;;;;;;;5055670;28;20033;-56
2023/04/30 07:11:29;;;;;;;5.80;5.20;;;;;;;;;;5055657;28;20033;-56
2023/04/30 07:13:55;;;;;;;7.65;4.93;;;;;;;;;;5055156;28;20052;-56
2023/04/30 07:16:21;;;;;;;6.25;5.18;;;;;;;;;;5055681;28;20516;-56
2023/04/30 07:18:48;;;;;;;5.85;5.28;;;;;;;;;;5055636;28;20375;-59
2023/04/30 07:21:14;;;;;;;5.60;5.03;;;;;;;;;;5055272;28;20025;-58
2023/04/30 07:23:41;;;;;;;5.80;5.13;;;;;;;;;;5054978;28;20517;-58
2023/04/30 07:26:07;;;;;;;6.93;6.28;;;;;;;;;;5055734;28;20053;-59
2023/04/30 07:28:33;;;;;;;6.45;5.43;;;;;;;;;;5054888;28;20060;-58
2023/04/30 07:30:59;;;;;;;6.30;4.93;;;;;;;;;;5055212;28;20444;-58
2023/04/30 07:33:25;;;;;;;6.93;5.20;;;;;;;;;;5054986;28;20032;-59
2023/04/30 07:35:51;;;;;;;6.10;5.40;;;;;;;;;;5054959;28;20472;-58
2023/04/30 07:38:18;;;;;;;6.20;5.40;;;;;;;;;;5055095;28;20106;-59
2023/04/30 07:40:44;;;;;;;6.18;4.82;;;;;;;;;;5054783;28;20164;-59
2023/04/30 07:43:10;;;;;;;5.07;4.57;;;;;;;;;;5054816;28;20135;-58
2023/04/30 07:45:37;;;;;;;5.88;4.75;;;;;;;;;;5055013;28;20032;-58
2023/04/30 07:48:03;;;;;;;5.30;4.55;;;;;;;;;;5054527;28;20074;-58
2023/04/30 07:50:32;;;;;;;6.10;4.90;;;;;;;;;;5054295;28;20025;-59
2023/04/30 07:52:58;;;;;;;5.00;4.50;;;;;;;;;;5054568;28;20033;-59
2023/04/30 07:55:24;;;;;;;5.60;4.97;;;;;;;;;;5054572;28;20108;-59
2023/04/30 07:57:50;;;;;;;6.38;4.97;;;;;;;;;;5054413;28;20063;-59
2023/04/30 08:00:16;;;;;;;5.40;4.90;;;;;;;;;;5054562;28;20025;-58
2023/04/30 08:02:44;;;;;;;6.07;4.15;;;;;;;;;;5054996;28;20116;-58
2023/04/30 08:05:10;;;;;;;4.72;4.25;;;;;;;;;;5055114;28;20040;-57
2023/04/30 08:07:36;;;;;;;5.13;4.57;;;;;;;;;;5054236;28;20036;-58
2023/04/30 08:10:02;;;;;;;4.97;4.28;;;;;;;;;;5055070;28;20350;-59
2023/04/30 08:12:29;;;;;;;5.75;4.43;;;;;;;;;;5054280;28;20455;-59
2023/04/30 08:15:03;;;;;;;4.85;4.30;;;;;;;;;;5054339;28;20052;-58
2023/04/30 08:17:29;;;;;;;5.05;4.07;;;;;;;;;;5054127;28;20116;-58
2023/04/30 08:19:55;;;;;;;5.75;4.85;;;;;;;;;;5053922;28;20052;-59
2023/04/30 08:22:22;;;;;;;5.88;4.28;;;;;;;;;;5054354;28;20025;-59
2023/04/30 08:24:48;;;;;;;5.35;4.20;;;;;;;;;;5054027;28;20025;-58
2023/04/30 08:27:15;;;;;;;4.50;4.00;;;;;;;;;;5054546;28;20059;-58
2023/04/30 08:29:41;;;;;;;4.22;3.50;;;;;;;;;;5054281;28;20032;-58
2023/04/30 08:32:08;;;;;;;3.97;3.50;;;;;;;;;;5053990;28;20413;-58
2023/04/30 08:34:34;;;;;;;3.95;3.50;;;;;;;;;;5053086;28;20025;-58
2023/04/30 08:37:00;;;;;;;5.30;4.03;;;;;;;;;;5054183;28;20033;-58
2023/04/30 08:39:26;;;;;;;4.60;3.90;;;;;;;;;;5053894;28;20025;-58
2023/04/30 08:41:55;;;;;;;4.32;3.40;;;;;;;;;;5053814;28;20029;-58
2023/04/30 08:44:22;;;;;;;3.80;3.40;;;;;;;;;;5054100;28;20033;-58
2023/04/30 08:46:51;;;;;;;4.53;3.35;;;;;;;;;;5053591;28;20036;-58
2023/04/30 08:49:17;;;;;;;4.82;2.97;;;;;;;;;;5053778;28;20525;-58
2023/04/30 08:51:43;;;;;;;2.85;2.35;;;;;;;;;;5054618;28;20061;-58
2023/04/30 08:54:12;;;;;;;5.70;2.90;;;;;;;;;;5053925;28;20035;-58
2023/04/30 08:56:38;;;;;;;3.38;2.83;;;;;;;;;;5053746;28;20082;-58
2023/04/30 08:59:04;;;;;;;3.40;2.90;;;;;;;;;;5054102;28;20048;-58
2023/04/30 09:01:30;;;;;;;3.50;2.58;;;;;;;;;;5053611;28;20029;-58
2023/04/30 09:03:56;;;;;;;3.10;2.42;;;;;;;;;;5053619;28;20067;-58
2023/04/30 09:06:22;;;;;;;2.75;2.00;;;;;;;;;;5054402;28;20454;-58
2023/04/30 09:08:48;;;;;;;3.47;2.70;;;;;;;;;;5053457;28;20044;-58
2023/04/30 09:11:22;;;;;;;3.90;2.60;;;;;;;;;;5053558;28;20028;-58
2023/04/30 09:13:49;;;;;;;3.45;2.60;;;;;;;;;;5053431;28;20479;-58
2023/04/30 09:16:15;;;;;;;3.58;2.35;;;;;;;;;;5053454;28;20116;-58
2023/04/30 09:18:41;;;;;;;5.82;2.50;;;;;;;;;;5054005;28;20120;-58
2023/04/30 09:21:07;;;;;;;8.57;2.50;;;;;;;;;;5053490;28;20550;-58
2023/04/30 09:23:33;;;;;;;3.22;2.60;;;;;;;;;;5053645;28;20364;-58
2023/04/30 09:25:59;;;;;;;2.90;2.28;;;;;;;;;;5054321;28;20032;-58
2023/04/30 09:28:27;;;;;;;2.80;2.10;;;;;;;;;;5053304;28;20068;-58
2023/04/30 09:30:55;;;;;;;3.33;1.88;;;;;;;;;;5053314;28;20036;-58
2023/04/30 09:33:21;;;;;;;2.90;2.00;;;;;;;;;;5053803;28;20375;-58
2023/04/30 09:35:47;;;;;;;3.40;2.40;;;;;;;;;;5053890;28;20032;-58
2023/04/30 09:38:30;;;;;;;3.22;2.00;;;;;;;;;;5053261;28;20029;-58
2023/04/30 09:40:57;;;;;;;3.60;2.25;;;;;;;;;;5053237;28;20032;-58
2023/04/30 09:43:23;;;;;;;3.63;2.47;;;;;;;;;;5053187;28;20033;-58
2023/04/30 09:45:51;;;;;;;3.15;2.17;;;;;;;;;;5055000;28;20032;-58
2023/04/30 09:48:23;;;;;;;2.80;2.17;;;;;;;;;;5057366;28;20067;-58
2023/04/30 09:50:49;;;;;;;3.95;1.90;;;;;;;;;;5056842;28;20454;-57
2023/04/30 09:53:18;;;;;;;3.38;1.98;;;;;;;;;;5056735;28;20078;-59
2023/04/30 09:55:45;;;;;;;3.28;2.28;;;;;;;;;;5057228;28;20033;-59
2023/04/30 09:58:12;;;;;;;4.43;2.25;;;;;;;;;;5056625;28;20116;-58
2023/04/30 10:00:38;;;;;;;3.10;2.13;;;;;;;;;;5057527;28;20051;-58
2023/04/30 10:03:14;;;;;;;4.35;2.25;;;;;;;;;;5056652;28;20367;-59
2023/04/30 10:05:46;;;;;;;3.38;2.03;;;;;;;;;;5057251;28;20028;-58
2023/04/30 10:08:23;;;;;;;2.70;2.33;;;;;;;;;;5056766;28;20123;-59
2023/04/30 10:10:50;;;;;;;2.90;2.47;;;;;;;;;;5056647;28;20029;-58
2023/04/30 10:13:19;;;;;;;4.10;2.20;;;;;;;;;;5057300;28;20033;-58
2023/04/30 10:15:50;;;;;;;3.42;1.77;;;;;;;;;;5057106;28;20049;-58
2023/04/30 10:18:36;;;;;;;4.07;1.95;;;;;;;;;;5057248;28;20025;-57
2023/04/30 10:21:09;;;;;;;2.60;2.03;;;;;;;;;;5056752;28;20075;-59
2023/04/30 10:23:35;;;;;;;4.80;2.00;;;;;;;;;;5056858;28;20113;-59
2023/04/30 10:26:02;;;;;;;3.60;1.80;;;;;;;;;;5056583;28;20025;-58
2023/04/30 10:28:28;;;;;;;9.45;2.00;;;;;;;;;;5056082;28;20033;-58
2023/04/30 10:30:55;;;;;;;2.15;1.67;;;;;;;;;;5056157;28;20102;-58
2023/04/30 10:33:20;;;;;;;2.08;1.52;;;;;;;;;;5056257;28;20116;-58
2023/04/30 10:35:50;;;;;;;2.30;1.80;;;;;;;;;;5056274;28;20053;-59
2023/04/30 10:38:23;;;;;;;2.67;1.97;;;;;;;;;;5056402;28;20503;-58
2023/04/30 10:40:50;;;;;;;3.63;2.30;;;;;;;;;;5056262;28;20025;-59
2023/04/30 10:43:21;;;;;;;2.67;1.73;;;;;;;;;;5056416;28;20129;-58
2023/04/30 10:45:47;;;;;;;2.30;1.65;;;;;;;;;;5055920;28;20032;-59
2023/04/30 10:48:14;;;;;;;2.47;1.83;;;;;;;;;;5055732;28;20064;-58
2023/04/30 10:50:41;;;;;;;3.38;1.90;;;;;;;;;;5055800;28;20363;-59
2023/04/30 10:53:07;;;;;;;3.35;2.42;;;;;;;;;;5055836;28;20066;-59
2023/04/30 10:55:38;;;;;;;2.92;2.38;;;;;;;;;;5055511;28;20044;-58
2023/04/30 10:58:22;;;;;;;3.85;2.60;;;;;;;;;;5055497;28;20040;-59
2023/04/30 11:00:51;;;;;;;2.83;2.22;;;;;;;;;;5056184;28;20021;-57
2023/04/30 11:03:17;;;;;;;2.90;1.92;;;;;;;;;;5055849;28;20032;-59
2023/04/30 11:05:43;;;;;;;3.17;2.17;;;;;;;;;;5056328;28;20384;-59
2023/04/30 11:08:12;;;;;;;3.25;2.03;;;;;;;;;;5055929;28;20036;-58
2023/04/30 11:10:38;;;;;;;3.58;2.63;;;;;;;;;;5055475;28;20025;-58
2023/04/30 11:13:05;;;;;;;3.83;2.50;;;;;;;;;;5055424;28;20025;-58
2023/04/30 11:15:33;;;;;;;3.35;2.47;;;;;;;;;;5055145;28;20060;-59
2023/04/30 11:17:59;;;;;;;3.33;2.83;;;;;;;;;;5055268;28;20021;-58
2023/04/30 11:20:25;;;;;;;3.72;2.80;;;;;;;;;;5055479;28;20025;-59
2023/04/30 11:23:10;;;;;;;5.65;2.75;;;;;;;;;;5055147;28;20024;-59
2023/04/30 11:25:43;;;;;;;4.13;2.75;;;;;;;;;;5055460;28;20032;-59
2023/04/30 11:28:14;;;;;;;3.85;2.25;;;;;;;;;;5055482;28;20029;-59
2023/04/30 11:30:41;;;;;;;3.65;2.78;;;;;;;;;;5055855;28;20075;-58
2023/04/30 11:33:07;;;;;;;3.55;2.65;;;;;;;;;;5054991;28;20032;-58
2023/04/30 11:35:33;;;;;;;3.00;2.08;;;;;;;;;;5055498;28;20153;-59
2023/04/30 11:37:59;;;;;;;3.55;2.30;;;;;;;;;;5055207;28;20037;-59
2023/04/30 11:40:26;;;;;;;3.08;2.05;;;;;;;;;;5054880;28;20407;-59
2023/04/30 11:42:51;;;;;;;3.47;2.45;;;;;;;;;;5054869;28;20025;-59
2023/04/30 11:45:19;;;;;;;3.40;1.95;;;;;;;;;;5054748;28;20071;-59
2023/04/30 11:47:49;;;;;;;3.30;2.60;;;;;;;;;;5054499;28;20037;-59
2023/04/30 11:50:16;;;;;;;3.05;1.83;;;;;;;;;;5054681;28;20029;-59
2023/04/30 11:52:48;;;;;;;3.17;2.40;;;;;;;;;;5055151;28;20025;-59
2023/04/30 11:55:15;;;;;;;2.72;2.13;;;;;;;;;;5055125;28;20104;-59
2023/04/30 11:57:45;;;;;;;3.55;2.08;;;;;;;;;;5055047;28;20124;-59
2023/04/30 12:00:12;;;;;;;3.78;2.80;;;;;;;;;;5054794;28;20028;-59
2023/04/30 12:02:38;;;;;;;2.25;1.75;;;;;;;;;;5054511;28;20040;-58
2023/04/30 12:05:05;;;;;;;3.72;2.45;;;;;;;;;;5054420;28;20032;-59
2023/04/30 12:07:31;;;;;;;3.50;2.03;;;;;;;;;;5055094;28;20026;-59
2023/04/30 12:09:58;;;;;;;2.85;1.70;;;;;;;;;;5054185;28;20017;-58
2023/04/30 12:12:30;;;;;;;2.83;1.98;;;;;;;;;;5054874;28;20031;-59
2023/04/30 12:14:57;;;;;;;3.50;1.98;;;;;;;;;;5054473;28;20110;-58
2023/04/30 12:17:35;;;;;;;2.78;1.92;;;;;;;;;;5054636;28;20029;-59
2023/04/30 12:20:01;;;;;;;2.72;1.88;;;;;;;;;;5054126;28;20451;-59
2023/04/30 12:22:27;;;;;;;3.15;2.08;;;;;;;;;;5054101;28;20029;-59
2023/04/30 12:24:55;;;;;;;3.33;1.63;;;;;;;;;;5054168;28;20027;-59
2023/04/30 12:27:21;;;;;;;2.50;1.98;;;;;;;;;;5053912;28;20043;-59
2023/04/30 12:29:49;;;;;;;2.55;1.83;;;;;;;;;;5053980;28;20017;-59
2023/04/30 12:32:17;;;;;;;2.90;2.28;;;;;;;;;;5054494;28;20029;-59
2023/04/30 12:34:44;;;;;;;2.60;1.92;;;;;;;;;;5054473;28;20032;-58
2023/04/30 12:37:10;;;;;;;3.20;2.47;;;;;;;;;;5054453;28;20029;-59
2023/04/30 12:39:36;;;;;;;2.70;2.00;;;;;;;;;;5054365;28;20501;-59
2023/04/30 12:42:03;;;;;;;4.65;2.60;;;;;;;;;;5053902;28;20112;-59
2023/04/30 12:44:29;;;;;;;4.35;2.60;;;;;;;;;;5053801;28;20104;-59
2023/04/30 12:46:56;;;;;;;4.22;2.38;;;;;;;;;;5053981;28;20027;-59
2023/04/30 12:49:29;;;;;;;2.40;2.15;;;;;;;;;;5053939;28;20029;-59
2023/04/30 12:52:00;;;;;;;3.38;2.65;;;;;;;;;;5053511;28;20021;-59
2023/04/30 12:54:30;;;;;;;2.72;2.08;;;;;;;;;;5053689;28;20029;-59
2023/04/30 12:57:06;;;;;;;2.58;2.20;;;;;;;;;;5054233;28;20029;-59
2023/04/30 12:59:34;;;;;;;2.80;2.33;;;;;;;;;;5053895;28;20485;-59
2023/04/30 13:02:07;;;;;;;3.35;2.28;;;;;;;;;;5053821;28;20032;-58
2023/04/30 13:04:33;;;;;;;4.90;2.83;;;;;;;;;;5053545;28;20025;-59
2023/04/30 13:06:59;;;;;;;4.07;2.35;;;;;;;;;;5054067;28;20051;-59
2023/04/30 13:09:25;;;;;;;4.40;2.55;;;;;;;;;;5054041;28;20032;-59
2023/04/30 13:11:51;;;;;;;3.33;2.42;;;;;;;;;;5053477;28;20017;-59
2023/04/30 13:14:17;;;;;;;2.92;2.00;;;;;;;;;;5053847;28;20427;-59
2023/04/30 13:16:43;;;;;;;2.97;2.15;;;;;;;;;;5053538;28;20537;-59
2023/04/30 13:19:10;;;;;;;3.72;2.63;;;;;;;;;;5053754;28;20057;-59
2023/04/30 13:21:36;;;;;;;2.92;2.17;;;;;;;;;;5056253;28;20021;-59
2023/04/30 13:24:02;;;;;;;2.85;2.00;;;;;;;;;;5057447;28;20045;-59
2023/04/30 13:26:28;;;;;;;3.63;2.25;;;;;;;;;;5057941;28;20033;-59
2023/04/30 13:28:54;;;;;;;2.50;1.90;;;;;;;;;;5057279;28;20116;-59
2023/04/30 13:31:23;;;;;;;3.92;2.00;;;;;;;;;;5057583;28;20029;-59
2023/04/30 13:33:50;;;;;;;3.63;2.08;;;;;;;;;;5057564;28;20025;-59
2023/04/30 13:36:16;;;;;;;4.20;2.35;;;;;;;;;;5057271;28;20074;-59
2023/04/30 13:38:42;;;;;;;3.38;2.00;;;;;;;;;;5057436;28;20104;-59
2023/04/30 13:41:08;;;;;;;3.28;2.25;;;;;;;;;;5057437;28;20029;-59
2023/04/30 13:43:37;;;;;;;3.00;2.25;;;;;;;;;;5057144;28;20048;-59
2023/04/30 13:46:03;;;;;;;5.28;2.53;;;;;;;;;;5057311;28;20028;-60
2023/04/30 13:48:29;;;;;;;2.83;2.05;;;;;;;;;;5057144;28;20459;-59
2023/04/30 13:50:55;;;;;;;5.40;2.13;;;;;;;;;;5056893;28;20053;-59
2023/04/30 13:53:21;;;;;;;3.33;2.10;;;;;;;;;;5057655;28;20088;-58
2023/04/30 13:55:47;;;;;;;3.50;1.90;;;;;;;;;;5057089;28;20025;-58
2023/04/30 13:58:14;;;;;;;4.18;1.95;;;;;;;;;;5057027;28;20029;-58
2023/04/30 14:00:40;;;;;;;3.10;2.17;;;;;;;;;;5057091;28;20041;-59
2023/04/30 14:03:07;;;;;;;4.40;2.00;;;;;;;;;;5056997;28;20067;-59
2023/04/30 14:05:33;;;;;;;2.22;1.67;;;;;;;;;;5057025;28;20029;-59
2023/04/30 14:07:59;;;;;;;2.80;1.85;;;;;;;;;;5056528;28;20119;-59
2023/04/30 14:10:25;;;;;;;2.50;1.70;;;;;;;;;;5056554;28;20104;-59
2023/04/30 14:12:51;;;;;;;2.60;1.92;;;;;;;;;;5057069;28;20112;-59
2023/04/30 14:15:17;;;;;;;2.72;1.95;;;;;;;;;;5056150;28;20458;-59
2023/04/30 14:17:43;;;;;;;2.25;1.88;;;;;;;;;;5056498;28;20060;-59
2023/04/30 14:20:10;;;;;;;2.70;2.13;;;;;;;;;;5056915;28;20021;-59
2023/04/30 14:22:37;;;;;;;2.72;1.83;;;;;;;;;;5056840;28;20020;-59
2023/04/30 14:25:03;;;;;;;3.65;1.95;;;;;;;;;;5056280;28;20391;-59
2023/04/30 14:27:29;;;;;;;2.47;1.90;;;;;;;;;;5057022;28;20029;-57
2023/04/30 14:29:55;;;;;;;3.10;1.65;;;;;;;;;;5056461;28;20028;-57
2023/04/30 14:32:24;;;;;;;4.00;2.42;;;;;;;;;;5055091;28;20045;-58
2023/04/30 14:34:50;;;;;;;3.28;2.60;;;;;;;;;;5056116;28;20028;-59
2023/04/30 14:37:16;;;;;;;2.70;1.83;;;;;;;;;;5056610;28;20029;-58
2023/04/30 14:39:42;;;;;;;2.67;2.17;;;;;;;;;;5056527;28;20428;-58
2023/04/30 14:42:08;;;;;;;3.25;2.15;;;;;;;;;;5056392;28;20139;-59